KSKF/SKF METAR and TAF weather

Enter ICAO airport designator
Station Type Date Time Source
KSKF METAR 2019/02/20 16:56 UTC NOAA

KSKF 201656Z AUTO 18004KT 10SM CLR 12/04 A3003 RMK AO2 SLP170 T01150038 $


Station Type Date Time Source
KSKF Decoded METAR 2019/02/20 16:56 UTC NOAA

Kelly Air Force Base, TX, United States (KSKF) 29-23N 098-35W
Feb 20, 2019 - 11:56 AM EST / 2019.02.20 1656 UTC
Wind: from the S (180 degrees) at 5 MPH (4 KT):0
Visibility: 10 mile(s):0
Sky conditions: clear
Temperature: 52.7 F (11.5 C)
Dew Point: 38.8 F (3.8 C)
Relative Humidity: 59%
Pressure (altimeter): 30.03 in. Hg (1016 hPa)
ob: KSKF 201656Z AUTO 18004KT 10SM CLR 12/04 A3003 RMK AO2 SLP170 T01150038
cycle: 17

Station Type Date Time Source
KSKF TAF 2019/02/20 10:18 UTC NOAA

TAF KSKF 201000Z 2010/2116 34006KT 9999 FEW300 QNH2991INS TX20/2020Z TN01/2013Z


Example: see airport list